Time;durP1;ratioP1;P1;durP2;ratioP2;P2;SDS_P1;SDS_P2;PMS_P1;PMS_P2;Temp;Humidity;BMP_temperature;BMP_pressure;BME280_temperature;BME280_humidity;BME280_pressure;Samples;Min_cycle;Max_cycle;Signal;HPM_P1;HPM_P2
2021/01/25 00:02:18;;;;;;;7.33;4.67;;;;;;;;;;1700952;84;21164;-86
2021/01/25 00:04:44;;;;;;;8.83;4.70;;;;;;;;;;1701440;84;21192;-84
2021/01/25 00:07:10;;;;;;;7.62;4.95;;;;;;;;;;1701328;84;21184;-85
2021/01/25 00:09:37;;;;;;;10.25;4.97;;;;;;;;;;1701026;84;21219;-85
2021/01/25 00:12:03;;;;;;;8.35;4.90;;;;;;;;;;1701062;84;21216;-84
2021/01/25 00:14:29;;;;;;;7.22;4.25;;;;;;;;;;1701275;84;21157;-85
2021/01/25 00:16:55;;;;;;;9.23;4.50;;;;;;;;;;1701064;84;21279;-84
2021/01/25 00:19:22;;;;;;;8.05;4.60;;;;;;;;;;1701025;84;21193;-84
2021/01/25 00:21:48;;;;;;;7.35;4.28;;;;;;;;;;1700936;84;21200;-85
2021/01/25 00:24:14;;;;;;;9.35;5.00;;;;;;;;;;1700990;84;21197;-85
2021/01/25 00:26:40;;;;;;;9.63;4.65;;;;;;;;;;1700896;84;21350;-83
2021/01/25 00:29:07;;;;;;;9.53;4.92;;;;;;;;;;1701196;84;21761;-85
2021/01/25 00:31:33;;;;;;;8.48;4.97;;;;;;;;;;1701225;84;21201;-85
2021/01/25 00:33:59;;;;;;;8.75;4.80;;;;;;;;;;1701374;84;21192;-85
2021/01/25 00:36:25;;;;;;;7.75;4.50;;;;;;;;;;1700872;84;21225;-85
2021/01/25 00:38:51;;;;;;;7.85;4.33;;;;;;;;;;1701099;84;21333;-85
2021/01/25 00:41:17;;;;;;;9.40;4.85;;;;;;;;;;1700980;84;21682;-84
2021/01/25 00:43:44;;;;;;;7.92;4.80;;;;;;;;;;1701197;84;21165;-85
2021/01/25 00:46:10;;;;;;;8.55;4.83;;;;;;;;;;1701362;84;21583;-85
2021/01/25 00:48:36;;;;;;;7.15;4.72;;;;;;;;;;1700908;84;21169;-86
2021/01/25 00:51:03;;;;;;;11.70;4.95;;;;;;;;;;1700932;84;21742;-85
2021/01/25 00:53:29;;;;;;;8.60;4.90;;;;;;;;;;1700963;84;21160;-84
2021/01/25 00:55:55;;;;;;;8.48;5.30;;;;;;;;;;1700871;84;21188;-84
2021/01/25 00:58:24;;;;;;;5.87;3.98;;;;;;;;;;1700938;84;21208;-85
2021/01/25 01:00:50;;;;;;;8.30;4.62;;;;;;;;;;1701237;84;21607;-85
2021/01/25 01:03:17;;;;;;;8.63;4.60;;;;;;;;;;1684873;84;21157;-85
2021/01/25 01:05:43;;;;;;;8.55;4.97;;;;;;;;;;1678378;85;21147;-84
2021/01/25 01:08:09;;;;;;;8.63;4.70;;;;;;;;;;1678715;85;21232;-85
2021/01/25 01:10:35;;;;;;;9.40;4.58;;;;;;;;;;1678487;85;21201;-85
2021/01/25 01:13:01;;;;;;;9.28;4.78;;;;;;;;;;1678509;85;21204;-85
2021/01/25 01:15:28;;;;;;;9.55;4.67;;;;;;;;;;1678451;85;21157;-84
2021/01/25 01:17:54;;;;;;;8.53;4.85;;;;;;;;;;1678360;85;21198;-84
2021/01/25 01:20:20;;;;;;;8.28;4.17;;;;;;;;;;1678406;84;21596;-84
2021/01/25 01:22:46;;;;;;;9.35;4.78;;;;;;;;;;1678538;85;21191;-85
2021/01/25 01:25:13;;;;;;;7.67;4.45;;;;;;;;;;1678355;85;21153;-85
2021/01/25 01:27:39;;;;;;;8.70;5.20;;;;;;;;;;1678428;85;21177;-86
2021/01/25 01:30:06;;;;;;;9.13;4.92;;;;;;;;;;1678348;84;21624;-85
2021/01/25 01:32:32;;;;;;;8.65;4.75;;;;;;;;;;1678312;85;21180;-85
2021/01/25 01:34:58;;;;;;;9.38;4.30;;;;;;;;;;1678480;85;21156;-84
2021/01/25 01:37:25;;;;;;;8.80;4.22;;;;;;;;;;1678587;84;21629;-85
2021/01/25 01:39:51;;;;;;;10.28;5.60;;;;;;;;;;1678651;85;21225;-85
2021/01/25 01:42:17;;;;;;;8.58;4.58;;;;;;;;;;1678723;85;21177;-85
2021/01/25 01:44:43;;;;;;;10.15;5.08;;;;;;;;;;1678593;84;21157;-85
2021/01/25 01:47:10;;;;;;;9.45;5.00;;;;;;;;;;1678361;85;21160;-84
2021/01/25 01:49:36;;;;;;;9.15;4.35;;;;;;;;;;1678710;85;21196;-85
2021/01/25 01:52:02;;;;;;;8.00;5.00;;;;;;;;;;1661199;85;21165;-86
2021/01/25 01:54:29;;;;;;;8.48;4.45;;;;;;;;;;1678439;85;21193;-85
2021/01/25 01:56:55;;;;;;;7.40;3.65;;;;;;;;;;1678893;84;21201;-84
2021/01/25 01:59:21;;;;;;;8.68;4.62;;;;;;;;;;1678612;85;21219;-85
2021/01/25 02:01:47;;;;;;;9.28;4.50;;;;;;;;;;1678370;85;21173;-84
2021/01/25 02:04:14;;;;;;;8.45;3.67;;;;;;;;;;1700854;84;21627;-85
2021/01/25 02:06:40;;;;;;;8.60;4.83;;;;;;;;;;1701060;84;21172;-85
2021/01/25 02:09:06;;;;;;;8.75;4.72;;;;;;;;;;1701130;84;21726;-85
2021/01/25 02:11:33;;;;;;;12.82;5.53;;;;;;;;;;1700896;84;21231;-85
2021/01/25 02:14:00;;;;;;;9.75;5.10;;;;;;;;;;1700887;84;21707;-85
2021/01/25 02:16:26;;;;;;;10.43;4.92;;;;;;;;;;1701285;84;21148;-85
2021/01/25 02:18:53;;;;;;;8.33;4.85;;;;;;;;;;1700962;84;21406;-85
2021/01/25 02:21:19;;;;;;;10.80;5.58;;;;;;;;;;1700977;84;21630;-85
2021/01/25 02:23:47;;;;;;;7.97;4.90;;;;;;;;;;1701157;84;21180;-85
2021/01/25 02:26:21;;;;;;;9.25;4.67;;;;;;;;;;1699926;84;21785;-85
2021/01/25 02:28:47;;;;;;;7.33;5.08;;;;;;;;;;1700644;84;21196;-84
2021/01/25 02:31:13;;;;;;;8.33;4.62;;;;;;;;;;1700860;84;21690;-84
2021/01/25 02:33:41;;;;;;;10.50;5.20;;;;;;;;;;1701051;84;21172;-86
2021/01/25 02:36:08;;;;;;;9.13;5.58;;;;;;;;;;1700933;84;21192;-85
2021/01/25 02:38:34;;;;;;;8.10;4.83;;;;;;;;;;1701082;84;21204;-85
2021/01/25 02:41:00;;;;;;;10.38;4.97;;;;;;;;;;1700942;84;21604;-85
2021/01/25 02:43:26;;;;;;;9.05;4.70;;;;;;;;;;1700933;84;21343;-84
2021/01/25 02:45:52;;;;;;;8.48;4.97;;;;;;;;;;1700875;84;21161;-84
2021/01/25 02:48:19;;;;;;;9.70;5.30;;;;;;;;;;1701232;84;21184;-85
2021/01/25 02:50:49;;;;;;;8.15;4.83;;;;;;;;;;1700999;84;21172;-85
2021/01/25 02:53:16;;;;;;;9.40;5.12;;;;;;;;;;1700873;84;21640;-84
2021/01/25 02:55:42;;;;;;;9.25;5.55;;;;;;;;;;1701083;84;21200;-85
2021/01/25 02:58:08;;;;;;;9.10;5.35;;;;;;;;;;1700803;84;21181;-85
2021/01/25 03:00:34;;;;;;;8.73;4.45;;;;;;;;;;1700815;84;21188;-83
2021/01/25 03:03:01;;;;;;;9.00;5.33;;;;;;;;;;1692521;84;21261;-85
2021/01/25 03:05:28;;;;;;;10.80;5.33;;;;;;;;;;1678365;85;21181;-84
2021/01/25 03:07:54;;;;;;;7.25;4.62;;;;;;;;;;1678384;85;21235;-85
2021/01/25 03:10:21;;;;;;;8.25;4.53;;;;;;;;;;1678331;85;21189;-85
2021/01/25 03:12:47;;;;;;;8.53;4.92;;;;;;;;;;1678406;85;21604;-85
2021/01/25 03:15:14;;;;;;;7.55;4.35;;;;;;;;;;1678407;85;21189;-83
2021/01/25 03:17:40;;;;;;;9.65;5.03;;;;;;;;;;1660949;85;21217;-84
2021/01/25 03:20:06;;;;;;;9.10;5.12;;;;;;;;;;1678474;85;21604;-85
2021/01/25 03:22:32;;;;;;;10.53;4.90;;;;;;;;;;1678550;85;21172;-85
2021/01/25 03:24:58;;;;;;;6.92;4.08;;;;;;;;;;1678399;85;21612;-85
2021/01/25 03:27:27;;;;;;;8.53;5.15;;;;;;;;;;1678357;84;21682;-85
2021/01/25 03:29:54;;;;;;;9.05;4.45;;;;;;;;;;1678299;84;21210;-85
2021/01/25 03:32:20;;;;;;;9.00;4.47;;;;;;;;;;1678633;85;21184;-83
2021/01/25 03:34:47;;;;;;;6.55;3.58;;;;;;;;;;1678675;85;21180;-85
2021/01/25 03:37:13;;;;;;;8.00;4.25;;;;;;;;;;1678556;85;21173;-85
2021/01/25 03:39:40;;;;;;;8.88;4.72;;;;;;;;;;1678551;85;21192;-85
2021/01/25 03:42:06;;;;;;;8.43;5.40;;;;;;;;;;1678503;85;21255;-85
2021/01/25 03:44:32;;;;;;;6.90;3.90;;;;;;;;;;1678421;84;21679;-84
2021/01/25 03:46:58;;;;;;;9.33;4.58;;;;;;;;;;1678445;84;21234;-85
2021/01/25 03:49:24;;;;;;;9.38;4.42;;;;;;;;;;1678695;85;21184;-85
2021/01/25 03:51:50;;;;;;;7.55;4.60;;;;;;;;;;1678429;85;21253;-85
2021/01/25 03:54:17;;;;;;;7.87;4.33;;;;;;;;;;1678430;85;21249;-85
2021/01/25 03:56:43;;;;;;;7.58;4.22;;;;;;;;;;1678381;85;21628;-84
2021/01/25 03:59:09;;;;;;;8.55;4.42;;;;;;;;;;1678440;85;21180;-85
2021/01/25 04:01:35;;;;;;;9.63;4.53;;;;;;;;;;1674188;84;21581;-87
2021/01/25 04:04:02;;;;;;;8.53;4.10;;;;;;;;;;1658146;86;21224;-85
2021/01/25 04:06:28;;;;;;;8.40;4.40;;;;;;;;;;1702999;84;21173;-85
2021/01/25 04:08:54;;;;;;;8.03;4.35;;;;;;;;;;1702842;84;21595;-84
2021/01/25 04:11:20;;;;;;;8.40;4.40;;;;;;;;;;1702937;84;21177;-86
2021/01/25 04:13:46;;;;;;;7.97;3.80;;;;;;;;;;1703119;84;21351;-85
2021/01/25 04:16:13;;;;;;;7.65;3.60;;;;;;;;;;1702788;84;21726;-85
2021/01/25 04:18:39;;;;;;;8.03;3.62;;;;;;;;;;1702716;84;21180;-85
2021/01/25 04:21:05;;;;;;;5.65;3.22;;;;;;;;;;1703011;84;21184;-84
2021/01/25 04:23:31;;;;;;;6.58;4.05;;;;;;;;;;1702972;84;21176;-85
2021/01/25 04:25:57;;;;;;;7.33;3.58;;;;;;;;;;1703022;84;21177;-86
2021/01/25 04:28:23;;;;;;;8.05;3.98;;;;;;;;;;1702966;84;21177;-85
2021/01/25 04:30:49;;;;;;;8.03;3.92;;;;;;;;;;1702976;84;21606;-86
2021/01/25 04:33:16;;;;;;;5.92;3.72;;;;;;;;;;1703165;84;21172;-85
2021/01/25 04:35:42;;;;;;;7.72;3.92;;;;;;;;;;1702938;84;21193;-85
2021/01/25 04:38:08;;;;;;;6.97;4.15;;;;;;;;;;1702942;84;21168;-86
2021/01/25 04:40:34;;;;;;;6.60;3.95;;;;;;;;;;1702902;84;21189;-86
2021/01/25 04:43:00;;;;;;;5.72;3.45;;;;;;;;;;1702853;84;21176;-86
2021/01/25 04:45:27;;;;;;;6.00;3.25;;;;;;;;;;1703000;84;21606;-85
2021/01/25 04:47:53;;;;;;;7.72;4.08;;;;;;;;;;1702954;84;21196;-85
2021/01/25 04:50:20;;;;;;;7.10;3.35;;;;;;;;;;1702941;84;21193;-85
2021/01/25 04:52:46;;;;;;;8.55;4.20;;;;;;;;;;1702935;84;21193;-85
2021/01/25 04:55:13;;;;;;;8.23;3.45;;;;;;;;;;1703121;84;21184;-85
2021/01/25 04:57:39;;;;;;;7.55;3.72;;;;;;;;;;1702859;84;21192;-85
2021/01/25 05:00:07;;;;;;;7.55;3.65;;;;;;;;;;1702987;84;21599;-85
2021/01/25 05:02:35;;;;;;;8.60;4.83;;;;;;;;;;1703020;84;21177;-85
2021/01/25 05:05:02;;;;;;;7.33;4.37;;;;;;;;;;1696381;84;21173;-85
2021/01/25 05:07:28;;;;;;;8.00;4.50;;;;;;;;;;1697825;84;21173;-85
2021/01/25 05:09:55;;;;;;;7.78;4.15;;;;;;;;;;1697589;84;21173;-85
2021/01/25 05:12:21;;;;;;;12.20;7.05;;;;;;;;;;1697823;84;21617;-84
2021/01/25 05:14:47;;;;;;;11.60;7.00;;;;;;;;;;1697808;84;21168;-86
2021/01/25 05:17:15;;;;;;;8.78;4.60;;;;;;;;;;1697699;84;21157;-85
2021/01/25 05:19:43;;;;;;;7.53;4.53;;;;;;;;;;1697672;84;21224;-85
2021/01/25 05:22:16;;;;;;;6.83;3.98;;;;;;;;;;1697466;84;21620;-84
2021/01/25 05:24:44;;;;;;;8.80;4.00;;;;;;;;;;1698151;84;21644;-84
2021/01/25 05:27:10;;;;;;;6.87;3.65;;;;;;;;;;1697103;84;21612;-85
2021/01/25 05:29:36;;;;;;;6.92;4.12;;;;;;;;;;1697671;84;21192;-85
2021/01/25 05:32:04;;;;;;;6.67;3.77;;;;;;;;;;1697520;84;21248;-85
2021/01/25 05:34:31;;;;;;;7.62;4.03;;;;;;;;;;1697171;84;21589;-85
2021/01/25 05:36:59;;;;;;;8.20;4.35;;;;;;;;;;1697674;84;21207;-85
2021/01/25 05:39:27;;;;;;;8.03;3.62;;;;;;;;;;1697742;84;21150;-85
2021/01/25 05:41:55;;;;;;;7.10;3.80;;;;;;;;;;1697347;84;21157;-85
2021/01/25 05:44:21;;;;;;;6.83;4.17;;;;;;;;;;1697639;84;21180;-84
2021/01/25 05:46:47;;;;;;;6.80;4.00;;;;;;;;;;1697698;84;21180;-85
2021/01/25 05:49:13;;;;;;;7.37;3.65;;;;;;;;;;1697822;84;21193;-85
2021/01/25 05:51:41;;;;;;;7.58;4.25;;;;;;;;;;1697779;84;21180;-85
2021/01/25 05:54:07;;;;;;;7.22;4.03;;;;;;;;;;1697894;84;21173;-85
2021/01/25 05:56:33;;;;;;;6.50;4.47;;;;;;;;;;1697834;84;21196;-84
2021/01/25 05:58:59;;;;;;;9.03;4.37;;;;;;;;;;1697881;84;21157;-85
2021/01/25 06:01:26;;;;;;;7.50;4.33;;;;;;;;;;1697982;84;21177;-85
2021/01/25 06:03:52;;;;;;;7.15;4.25;;;;;;;;;;1668843;85;21221;-85
2021/01/25 06:06:29;;;;;;;9.13;5.00;;;;;;;;;;1684871;85;21292;-84
2021/01/25 06:08:57;;;;;;;6.08;2.72;;;;;;;;;;1685038;85;21189;-84
2021/01/25 06:11:27;;;;;;;7.90;4.55;;;;;;;;;;1684268;85;21193;-86
2021/01/25 06:13:54;;;;;;;8.13;4.28;;;;;;;;;;1685086;85;21209;-85
2021/01/25 06:16:21;;;;;;;7.97;4.60;;;;;;;;;;1685054;85;21177;-84
2021/01/25 06:18:48;;;;;;;6.87;4.67;;;;;;;;;;1684985;85;21177;-85
2021/01/25 06:21:14;;;;;;;8.78;4.80;;;;;;;;;;1684881;85;21217;-85
2021/01/25 06:23:41;;;;;;;7.53;4.40;;;;;;;;;;1685008;85;21181;-86
2021/01/25 06:26:07;;;;;;;8.28;4.10;;;;;;;;;;1684987;85;21158;-84
2021/01/25 06:28:33;;;;;;;7.45;4.12;;;;;;;;;;1663080;85;21174;-84
2021/01/25 06:31:00;;;;;;;9.40;4.45;;;;;;;;;;1684922;85;21194;-85
2021/01/25 06:33:26;;;;;;;16.55;8.43;;;;;;;;;;1685133;85;21190;-84
2021/01/25 06:35:52;;;;;;;8.63;4.78;;;;;;;;;;1684844;85;21186;-84
2021/01/25 06:38:19;;;;;;;8.20;4.12;;;;;;;;;;1685088;85;21177;-85
2021/01/25 06:40:46;;;;;;;7.50;3.92;;;;;;;;;;1684957;85;21226;-85
2021/01/25 06:43:15;;;;;;;3.70;2.33;;;;;;;;;;1685103;85;21355;-85
2021/01/25 06:45:45;;;;;;;3.22;2.08;;;;;;;;;;1685003;85;21319;-84
2021/01/25 06:48:12;;;;;;;5.20;2.22;;;;;;;;;;1684955;85;21154;-84
2021/01/25 06:50:38;;;;;;;2.62;1.30;;;;;;;;;;1684927;85;21218;-85
2021/01/25 06:53:04;;;;;;;1.98;1.00;;;;;;;;;;1685169;85;21193;-85
2021/01/25 06:55:32;;;;;;;1.75;0.80;;;;;;;;;;1684763;85;21102;-86
2021/01/25 06:58:00;;;;;;;1.20;0.72;;;;;;;;;;1685244;85;21173;-84
2021/01/25 07:00:27;;;;;;;0.85;0.53;;;;;;;;;;1684481;85;21748;-84
2021/01/25 07:02:54;;;;;;;0.85;0.50;;;;;;;;;;1684904;85;21236;-85
2021/01/25 07:05:20;;;;;;;1.02;0.70;;;;;;;;;;1680523;84;21620;-83
2021/01/25 07:07:47;;;;;;;0.70;0.60;;;;;;;;;;1695738;84;21208;-83
2021/01/25 07:10:14;;;;;;;0.75;0.60;;;;;;;;;;1694353;84;21184;-84
2021/01/25 07:12:41;;;;;;;1.60;0.25;;;;;;;;;;1696511;83;21598;-83
2021/01/25 07:15:12;;;;;;;0.68;0.33;;;;;;;;;;1693780;84;21128;-82
2021/01/25 07:17:38;;;;;;;0.98;0.20;;;;;;;;;;1699684;84;21618;-84
2021/01/25 07:20:05;;;;;;;1.62;0.70;;;;;;;;;;1700911;84;21178;-84
2021/01/25 07:22:32;;;;;;;1.32;0.75;;;;;;;;;;1701098;84;21146;-84
2021/01/25 07:24:59;;;;;;;0.47;0.23;;;;;;;;;;1700907;84;21183;-84
2021/01/25 07:27:27;;;;;;;0.20;0.20;;;;;;;;;;1700965;84;21559;-84
2021/01/25 07:29:55;;;;;;;0.28;0.23;;;;;;;;;;1689527;83;21163;-83
2021/01/25 07:32:23;;;;;;;0.20;0.10;;;;;;;;;;1688329;84;21594;-84
2021/01/25 07:34:49;;;;;;;1.30;0.20;;;;;;;;;;1694254;84;21179;-82
2021/01/25 07:37:15;;;;;;;0.55;0.28;;;;;;;;;;1698383;84;21151;-86
2021/01/25 07:39:43;;;;;;;0.80;0.28;;;;;;;;;;1700749;84;21186;-87
2021/01/25 07:42:12;;;;;;;1.92;0.35;;;;;;;;;;1700012;84;21320;-88
2021/01/25 07:44:37;;;;;;;1.12;0.20;;;;;;;;;;1701341;84;21174;-87
2021/01/25 07:47:07;;;;;;;1.65;0.95;;;;;;;;;;1701325;84;21211;-88
2021/01/25 07:49:35;;;;;;;1.10;0.28;;;;;;;;;;1700551;83;21187;-86
2021/01/25 07:52:01;;;;;;;0.60;0.40;;;;;;;;;;1701263;84;21163;-87
2021/01/25 07:54:31;;;;;;;1.50;0.40;;;;;;;;;;1701749;84;21155;-86
2021/01/25 07:56:59;;;;;;;0.90;0.50;;;;;;;;;;1702538;84;21560;-87
2021/01/25 07:59:27;;;;;;;0.10;0.10;;;;;;;;;;1702637;84;21596;-86
2021/01/25 08:01:54;;;;;;;1.95;0.28;;;;;;;;;;1701521;84;21598;-86
2021/01/25 08:04:21;;;;;;;0.33;0.10;;;;;;;;;;1702118;83;21211;-85
2021/01/25 08:06:50;;;;;;;5.17;0.37;;;;;;;;;;1704198;84;21170;-86
2021/01/25 08:09:18;;;;;;;1.00;0.20;;;;;;;;;;1709448;83;21140;-87
2021/01/25 08:11:43;;;;;;;0.20;0.20;;;;;;;;;;1710102;83;21614;-85
2021/01/25 08:14:13;;;;;;;0.13;0.13;;;;;;;;;;1684717;84;21250;-86
2021/01/25 08:16:43;;;;;;;0.35;0.20;;;;;;;;;;1709385;84;21159;-85
2021/01/25 08:19:15;;;;;;;0.72;0.00;;;;;;;;;;1709813;83;21282;-85
2021/01/25 08:21:57;;;;;;;0.42;0.23;;;;;;;;;;1709753;83;21136;-86
2021/01/25 08:24:23;;;;;;;1.35;0.30;;;;;;;;;;1709560;84;21758;-86
2021/01/25 08:26:55;;;;;;;0.35;0.30;;;;;;;;;;1709727;83;21167;-86
2021/01/25 09:05:04;;;;;;;0.20;0.20;;;;;;;;;;1794224;78;23451;-86
2021/01/25 09:07:30;;;;;;;3.33;0.30;;;;;;;;;;1826158;78;21108;-85
2021/01/25 09:09:56;;;;;;;0.30;0.20;;;;;;;;;;1826077;78;21159;-86
2021/01/25 09:12:40;;;;;;;0.30;0.20;;;;;;;;;;1826541;78;21130;-87
2021/01/25 09:15:15;;;;;;;0.72;0.20;;;;;;;;;;1825822;78;21131;-85
2021/01/25 09:18:01;;;;;;;0.45;0.20;;;;;;;;;;1824072;77;22893;-85
2021/01/25 09:20:28;;;;;;;0.20;0.20;;;;;;;;;;1827954;78;21153;-86
2021/01/25 09:22:58;;;;;;;0.20;0.20;;;;;;;;;;1827824;78;21845;-86
2021/01/25 09:25:27;;;;;;;0.13;0.13;;;;;;;;;;1825469;78;21223;-87
2021/01/25 09:27:54;;;;;;;1.02;0.30;;;;;;;;;;1828009;78;21604;-86
2021/01/25 09:30:20;;;;;;;0.40;0.20;;;;;;;;;;1828242;78;21169;-86
2021/01/25 09:32:46;;;;;;;0.47;0.35;;;;;;;;;;1828139;78;21211;-84
2021/01/25 09:35:13;;;;;;;0.55;0.30;;;;;;;;;;1827880;78;21141;-86
2021/01/25 09:37:40;;;;;;;0.35;0.28;;;;;;;;;;1828039;78;21315;-86
2021/01/25 09:40:15;;;;;;;0.80;0.28;;;;;;;;;;1828238;78;21286;-87
2021/01/25 09:42:42;;;;;;;0.72;0.15;;;;;;;;;;1827949;78;21559;-86
2021/01/25 09:45:10;;;;;;;0.60;0.20;;;;;;;;;;1827828;78;21144;-83
2021/01/25 09:47:36;;;;;;;0.50;0.30;;;;;;;;;;1827897;78;21144;-86
2021/01/25 09:50:03;;;;;;;0.40;0.28;;;;;;;;;;1828012;78;21310;-85
2021/01/25 09:52:29;;;;;;;0.45;0.20;;;;;;;;;;1828000;78;21160;-87
2021/01/25 09:54:55;;;;;;;0.35;0.20;;;;;;;;;;1827887;78;21129;-85
2021/01/25 09:57:21;;;;;;;0.70;0.23;;;;;;;;;;1827876;78;21160;-86
2021/01/25 09:59:50;;;;;;;0.50;0.20;;;;;;;;;;1828079;78;21675;-87
2021/01/25 10:02:16;;;;;;;0.98;0.10;;;;;;;;;;1827621;78;21145;-86
2021/01/25 10:04:46;;;;;;;0.13;0.13;;;;;;;;;;1824012;78;21639;-86
2021/01/25 10:07:14;;;;;;;0.30;0.20;;;;;;;;;;1827928;78;21294;-85
2021/01/25 10:09:43;;;;;;;0.00;0.00;;;;;;;;;;1828105;78;21148;-87
2021/01/25 10:12:15;;;;;;;1.77;0.30;;;;;;;;;;1828007;78;21310;-86
2021/01/25 10:14:47;;;;;;;0.10;0.10;;;;;;;;;;1823527;78;21168;-86
2021/01/25 10:17:19;;;;;;;0.05;0.05;;;;;;;;;;1826929;78;21094;-85
2021/01/25 10:19:43;;;;;;;0.70;0.35;;;;;;;;;;1828175;78;21129;-85
2021/01/25 10:22:09;;;;;;;1.37;0.40;;;;;;;;;;1828946;78;21291;-86
2021/01/25 10:24:36;;;;;;;0.30;0.20;;;;;;;;;;1828568;78;21140;-87
2021/01/25 10:27:07;;;;;;;12.37;5.40;;;;;;;;;;1828504;78;21117;-86
2021/01/25 10:29:32;;;;;;;0.25;0.23;;;;;;;;;;1827671;78;21302;-86
2021/01/25 10:31:58;;;;;;;0.20;0.20;;;;;;;;;;1828055;78;21616;-85
2021/01/25 10:34:25;;;;;;;0.28;0.20;;;;;;;;;;1828196;78;21571;-85
2021/01/25 10:36:52;;;;;;;0.20;0.20;;;;;;;;;;1828059;78;21200;-86
2021/01/25 10:39:19;;;;;;;0.65;0.30;;;;;;;;;;1828002;78;21144;-88
2021/01/25 10:41:45;;;;;;;0.78;0.20;;;;;;;;;;1828096;78;21121;-85
2021/01/25 10:44:17;;;;;;;1.62;0.30;;;;;;;;;;1828003;78;21251;-86
2021/01/25 10:46:46;;;;;;;0.75;0.42;;;;;;;;;;1827189;78;21149;-86
2021/01/25 10:49:10;;;;;;;0.55;0.20;;;;;;;;;;1827344;78;21279;-85
2021/01/25 10:51:39;;;;;;;1.85;0.33;;;;;;;;;;1827870;78;21168;-86
2021/01/25 10:54:25;;;;;;;0.45;0.30;;;;;;;;;;1828056;78;21149;-87
2021/01/25 10:56:50;;;;;;;2.60;0.60;;;;;;;;;;1827608;78;21176;-85
2021/01/25 10:59:17;;;;;;;2.02;0.70;;;;;;;;;;1827829;78;21144;-87
2021/01/25 11:01:45;;;;;;;1.07;0.65;;;;;;;;;;1827953;78;21120;-86
2021/01/25 11:04:14;;;;;;;0.82;0.30;;;;;;;;;;1827793;78;21105;-85
2021/01/25 11:06:40;;;;;;;0.60;0.33;;;;;;;;;;1828381;78;21322;-86
2021/01/25 11:09:13;;;;;;;0.98;0.37;;;;;;;;;;1827828;78;21140;-85
2021/01/25 11:11:40;;;;;;;1.15;0.70;;;;;;;;;;1825722;78;21188;-86
2021/01/25 11:14:09;;;;;;;0.45;0.40;;;;;;;;;;1828166;78;21171;-85
2021/01/25 11:16:42;;;;;;;0.90;0.47;;;;;;;;;;1826192;78;21168;-85
2021/01/25 11:19:08;;;;;;;0.75;0.42;;;;;;;;;;1818670;79;21114;-86
2021/01/25 11:21:41;;;;;;;0.65;0.35;;;;;;;;;;1819253;79;21557;-85
2021/01/25 11:24:16;;;;;;;1.65;0.72;;;;;;;;;;1818075;78;21110;-87
2021/01/25 11:26:52;;;;;;;;;;;;;;;;;;;;;
2021/01/25 11:29:15;;;;;;;1.40;0.82;;;;;;;;;;1816463;78;21644;-86
2021/01/25 11:31:42;;;;;;;1.35;0.70;;;;;;;;;;1819187;79;21126;-86
2021/01/25 11:34:08;;;;;;;1.42;0.62;;;;;;;;;;1819500;79;21149;-86
2021/01/25 11:36:35;;;;;;;1.50;0.72;;;;;;;;;;1819364;79;21197;-86
2021/01/25 11:39:08;;;;;;;2.00;0.90;;;;;;;;;;1819104;79;21102;-86
2021/01/25 11:41:36;;;;;;;2.65;0.88;;;;;;;;;;1818917;79;21125;-85
2021/01/25 11:44:02;;;;;;;1.90;1.00;;;;;;;;;;1819085;79;21172;-85
2021/01/25 11:46:28;;;;;;;1.82;1.07;;;;;;;;;;1819111;79;21172;-85
2021/01/25 11:48:54;;;;;;;1.80;0.90;;;;;;;;;;1819146;79;21157;-86
2021/01/25 11:51:20;;;;;;;2.62;0.75;;;;;;;;;;1819072;79;21177;-85
2021/01/25 11:53:47;;;;;;;0.98;0.50;;;;;;;;;;1819058;79;21136;-86
2021/01/25 11:56:13;;;;;;;1.45;0.62;;;;;;;;;;1818837;79;21141;-86
2021/01/25 11:58:39;;;;;;;2.87;0.90;;;;;;;;;;1819182;79;21113;-86
2021/01/25 12:01:05;;;;;;;1.10;0.72;;;;;;;;;;1818977;79;21145;-86
2021/01/25 12:03:32;;;;;;;2.15;0.80;;;;;;;;;;1818892;79;21141;-86
2021/01/25 12:06:01;;;;;;;1.72;0.78;;;;;;;;;;1819198;79;21133;-86
2021/01/25 12:08:29;;;;;;;1.65;0.75;;;;;;;;;;1819012;79;21142;-86
2021/01/25 12:10:55;;;;;;;2.30;1.10;;;;;;;;;;1818863;79;21611;-86
2021/01/25 12:13:21;;;;;;;2.25;0.80;;;;;;;;;;1819039;79;21148;-86
2021/01/25 12:15:48;;;;;;;2.92;0.80;;;;;;;;;;1818980;79;21185;-86
2021/01/25 12:18:19;;;;;;;2.27;1.00;;;;;;;;;;1788171;79;21589;-85
2021/01/25 12:20:45;;;;;;;1.00;0.70;;;;;;;;;;1819741;79;21337;-87
2021/01/25 12:23:12;;;;;;;1.55;0.90;;;;;;;;;;1819381;79;21153;-87
2021/01/25 12:25:39;;;;;;;1.02;0.47;;;;;;;;;;1818914;79;21153;-86
2021/01/25 12:28:07;;;;;;;1.67;1.12;;;;;;;;;;1818922;79;21121;-86
2021/01/25 12:30:33;;;;;;;1.65;1.00;;;;;;;;;;1818819;79;21168;-85
2021/01/25 12:32:59;;;;;;;1.47;1.05;;;;;;;;;;1818871;79;21580;-86
2021/01/25 12:35:26;;;;;;;2.17;0.50;;;;;;;;;;1818992;79;21149;-85
2021/01/25 12:37:54;;;;;;;1.30;0.80;;;;;;;;;;1819160;79;21125;-85
2021/01/25 12:40:20;;;;;;;0.65;0.65;;;;;;;;;;1819439;79;21141;-87
2021/01/25 12:42:47;;;;;;;3.37;0.90;;;;;;;;;;1818798;79;21173;-87
2021/01/25 12:45:14;;;;;;;2.00;1.10;;;;;;;;;;1818823;79;21176;-86
2021/01/25 12:47:40;;;;;;;3.12;0.95;;;;;;;;;;1818849;79;21160;-86
2021/01/25 12:50:06;;;;;;;1.47;0.98;;;;;;;;;;1819222;79;21152;-85
2021/01/25 12:52:33;;;;;;;1.22;0.60;;;;;;;;;;1819209;79;21153;-85
2021/01/25 12:55:08;;;;;;;2.55;0.85;;;;;;;;;;1820505;79;21181;-86
2021/01/25 12:57:29;;;;;;;1.47;0.72;;;;;;;;;;1818195;79;21133;-84
2021/01/25 12:59:55;;;;;;;1.60;0.70;;;;;;;;;;1819025;79;21222;-85
2021/01/25 13:02:21;;;;;;;1.02;0.80;;;;;;;;;;1818971;79;21601;-86
2021/01/25 13:04:48;;;;;;;1.77;0.85;;;;;;;;;;1818929;79;21125;-85
2021/01/25 13:07:14;;;;;;;2.05;1.17;;;;;;;;;;1818917;79;21152;-84
2021/01/25 13:09:40;;;;;;;3.25;0.90;;;;;;;;;;1818915;79;21673;-86
2021/01/25 13:12:09;;;;;;;1.52;0.80;;;;;;;;;;1818993;79;21177;-85
2021/01/25 13:14:38;;;;;;;2.00;0.68;;;;;;;;;;1818983;79;21145;-86
2021/01/25 13:17:06;;;;;;;1.87;1.00;;;;;;;;;;1819144;78;21113;-86
2021/01/25 13:19:32;;;;;;;3.10;0.60;;;;;;;;;;1818622;78;21118;-86
2021/01/25 13:22:03;;;;;;;1.27;0.50;;;;;;;;;;1819095;79;21153;-85
2021/01/25 13:24:26;;;;;;;1.10;0.70;;;;;;;;;;1817819;79;21141;-85
2021/01/25 13:26:52;;;;;;;3.00;0.85;;;;;;;;;;1818934;79;21176;-85
2021/01/25 13:29:22;;;;;;;1.85;0.90;;;;;;;;;;1819029;79;21156;-85
2021/01/25 13:31:46;;;;;;;3.62;2.98;;;;;;;;;;1818659;79;21145;-85
2021/01/25 13:34:13;;;;;;;2.80;1.15;;;;;;;;;;1819030;79;21153;-85
2021/01/25 13:36:39;;;;;;;3.42;1.07;;;;;;;;;;1810865;79;21141;-86
2021/01/25 13:39:05;;;;;;;2.70;0.98;;;;;;;;;;1786862;80;21179;-86
2021/01/25 13:41:31;;;;;;;3.70;1.07;;;;;;;;;;1786908;80;21628;-86
2021/01/25 13:43:58;;;;;;;2.62;0.90;;;;;;;;;;1786666;80;21171;-89
2021/01/25 13:46:24;;;;;;;1.40;1.10;;;;;;;;;;1786827;80;21599;-86
2021/01/25 13:48:50;;;;;;;3.08;1.30;;;;;;;;;;1786890;80;21200;-86
2021/01/25 13:51:16;;;;;;;3.25;1.00;;;;;;;;;;1786844;80;21592;-87
2021/01/25 13:53:42;;;;;;;3.12;1.10;;;;;;;;;;1787223;80;21556;-86
2021/01/25 13:56:08;;;;;;;3.90;1.32;;;;;;;;;;1786940;80;21164;-85
2021/01/25 13:58:35;;;;;;;3.98;1.70;;;;;;;;;;1787061;80;21160;-86
2021/01/25 14:01:01;;;;;;;4.12;2.05;;;;;;;;;;1786903;80;21176;-86
2021/01/25 14:03:27;;;;;;;2.67;1.40;;;;;;;;;;1786771;80;21597;-85
2021/01/25 14:05:54;;;;;;;1.75;0.85;;;;;;;;;;1787093;80;21137;-86
2021/01/25 14:08:20;;;;;;;2.60;1.80;;;;;;;;;;1786880;80;21168;-85
2021/01/25 14:10:50;;;;;;;6.00;1.50;;;;;;;;;;1786858;80;21152;-86
2021/01/25 14:13:15;;;;;;;2.37;1.22;;;;;;;;;;1786502;80;21684;-85
2021/01/25 14:15:41;;;;;;;4.45;1.77;;;;;;;;;;1787241;80;21624;-86
2021/01/25 14:18:07;;;;;;;3.47;1.42;;;;;;;;;;1788498;80;21167;-86
2021/01/25 14:20:33;;;;;;;2.92;1.47;;;;;;;;;;1790167;80;21576;-86
2021/01/25 14:22:59;;;;;;;4.25;2.22;;;;;;;;;;1790180;80;21137;-86
2021/01/25 14:25:26;;;;;;;2.58;1.92;;;;;;;;;;1790145;80;21217;-86
2021/01/25 14:27:52;;;;;;;4.28;1.80;;;;;;;;;;1790168;80;21161;-85
2021/01/25 14:30:19;;;;;;;3.80;1.80;;;;;;;;;;1790615;80;21160;-87
2021/01/25 14:32:46;;;;;;;3.37;1.95;;;;;;;;;;1790340;80;21153;-85
2021/01/25 14:35:12;;;;;;;3.10;2.17;;;;;;;;;;1790256;80;21589;-86
2021/01/25 14:37:39;;;;;;;4.03;2.58;;;;;;;;;;1790195;80;21141;-86
2021/01/25 14:40:05;;;;;;;5.28;2.90;;;;;;;;;;1790154;80;21153;-85
2021/01/25 14:42:31;;;;;;;5.40;2.83;;;;;;;;;;1790252;80;21189;-85
2021/01/25 14:44:57;;;;;;;4.72;2.62;;;;;;;;;;1790213;80;21201;-87
2021/01/25 14:47:24;;;;;;;4.45;3.02;;;;;;;;;;1790152;80;21677;-86
2021/01/25 14:49:50;;;;;;;4.58;2.95;;;;;;;;;;1790201;80;21165;-85
2021/01/25 14:52:16;;;;;;;7.00;3.60;;;;;;;;;;1790364;80;21193;-86
2021/01/25 14:54:42;;;;;;;6.42;3.87;;;;;;;;;;1790449;80;21136;-86
2021/01/25 14:57:09;;;;;;;6.47;3.98;;;;;;;;;;1790072;80;21553;-86
2021/01/25 14:59:44;;;;;;;6.37;3.67;;;;;;;;;;1790465;80;21184;-86
2021/01/25 15:02:08;;;;;;;7.50;3.95;;;;;;;;;;1789065;80;21656;-85
2021/01/25 15:04:34;;;;;;;8.65;3.80;;;;;;;;;;1790083;80;21571;-87
2021/01/25 15:07:00;;;;;;;7.12;4.33;;;;;;;;;;1790185;80;21156;-87
2021/01/25 15:09:26;;;;;;;6.12;3.75;;;;;;;;;;1790384;80;21180;-86
2021/01/25 15:11:53;;;;;;;7.37;4.75;;;;;;;;;;1790346;80;21679;-85
2021/01/25 15:14:22;;;;;;;7.50;4.40;;;;;;;;;;1790308;80;21212;-85
2021/01/25 15:16:46;;;;;;;6.72;3.67;;;;;;;;;;1789740;80;21149;-86
2021/01/25 15:19:13;;;;;;;5.90;3.90;;;;;;;;;;1790024;79;21125;-86